Time;durP1;ratioP1;P1;durP2;ratioP2;P2;SDS_P1;SDS_P2;PMS_P1;PMS_P2;Temp;Humidity;BMP_temperature;BMP_pressure;BME280_temperature;BME280_humidity;BME280_pressure;Samples;Min_cycle;Max_cycle;Signal;HPM_P1;HPM_P2
2022/06/26 00:00:27;;;;;;;11.90;5.10;;;20.00;99.90;;;;;;5030631;28;20393;-83
2022/06/26 00:02:55;;;;;;;10.63;5.30;;;20.00;99.90;;;;;;5012111;28;20379;-83
2022/06/26 00:05:23;;;;;;;9.90;5.15;;;19.90;99.90;;;;;;5027977;28;20391;-83
2022/06/26 00:07:50;;;;;;;12.33;5.10;;;19.90;99.90;;;;;;5002561;28;20398;-84
2022/06/26 00:10:18;;;;;;;8.07;4.80;;;19.90;99.90;;;;;;5029911;28;20447;-85
2022/06/26 00:12:45;;;;;;;11.40;5.30;;;19.90;99.90;;;;;;5046741;28;20397;-84
2022/06/26 00:15:13;;;;;;;10.27;5.20;;;19.80;99.90;;;;;;5031492;28;20569;-84
2022/06/26 00:17:40;;;;;;;10.80;5.20;;;19.80;99.90;;;;;;5031649;28;20404;-85
2022/06/26 00:20:08;;;;;;;9.75;5.43;;;19.80;99.90;;;;;;5031601;28;20432;-84
2022/06/26 00:22:36;;;;;;;9.68;4.97;;;19.70;99.90;;;;;;5031047;28;20385;-84
2022/06/26 00:25:05;;;;;;;9.60;5.57;;;19.70;99.90;;;;;;5031448;28;20396;-84
2022/06/26 00:27:32;;;;;;;10.47;5.10;;;19.70;99.90;;;;;;5013779;28;20884;-85
2022/06/26 00:30:01;;;;;;;8.68;5.30;;;19.60;99.90;;;;;;5031753;28;20798;-85
2022/06/26 00:32:28;;;;;;;9.60;5.78;;;19.70;99.90;;;;;;5029959;28;20424;-84
2022/06/26 00:34:56;;;;;;;10.80;5.53;;;19.60;99.90;;;;;;5030963;28;20401;-84
2022/06/26 00:37:23;;;;;;;9.18;5.03;;;19.60;99.90;;;;;;5046391;28;20496;-85
2022/06/26 00:39:51;;;;;;;14.10;5.90;;;19.60;99.90;;;;;;5046399;28;20741;-84
2022/06/26 00:42:20;;;;;;;10.80;5.70;;;19.60;99.90;;;;;;5014285;28;20942;-85
2022/06/26 00:44:51;;;;;;;10.68;5.32;;;19.60;99.90;;;;;;5029934;28;20387;-84
2022/06/26 00:47:19;;;;;;;11.52;5.47;;;19.50;99.90;;;;;;5031382;28;20424;-84
2022/06/26 00:49:47;;;;;;;10.68;5.50;;;19.50;99.90;;;;;;5013568;28;20390;-84
2022/06/26 00:52:16;;;;;;;10.15;5.13;;;19.50;99.90;;;;;;5046222;28;20473;-83
2022/06/26 00:54:44;;;;;;;11.57;5.70;;;19.40;99.90;;;;;;5012927;28;20428;-85
2022/06/26 00:57:12;;;;;;;9.65;5.50;;;19.40;99.90;;;;;;5045164;28;20389;-84
2022/06/26 00:59:40;;;;;;;9.60;5.05;;;19.40;99.90;;;;;;5013480;28;20395;-84
2022/06/26 01:02:08;;;;;;;8.90;5.45;;;19.40;99.90;;;;;;5045787;28;20440;-84
2022/06/26 01:04:35;;;;;;;7.88;5.18;;;19.40;99.90;;;;;;5008426;28;20410;-83
2022/06/26 01:07:03;;;;;;;9.18;5.78;;;19.40;99.90;;;;;;5011824;28;20402;-83
2022/06/26 01:09:31;;;;;;;11.60;5.32;;;19.40;99.90;;;;;;5011698;28;20493;-84
2022/06/26 01:11:59;;;;;;;9.95;5.60;;;19.40;99.90;;;;;;5026889;28;20755;-85
2022/06/26 01:14:30;;;;;;;8.48;5.28;;;19.30;99.90;;;;;;5009939;28;20402;-83
2022/06/26 01:16:59;;;;;;;7.90;5.30;;;19.30;99.90;;;;;;5030088;28;20890;-84
2022/06/26 01:19:29;;;;;;;8.05;5.18;;;19.30;99.90;;;;;;5030294;28;20379;-83
2022/06/26 01:21:57;;;;;;;9.05;5.20;;;19.20;99.90;;;;;;5030720;28;20445;-83
2022/06/26 01:24:25;;;;;;;7.32;5.50;;;19.20;99.90;;;;;;4998432;28;20398;-84
2022/06/26 01:26:53;;;;;;;10.27;5.30;;;19.20;99.90;;;;;;5049787;28;20748;-82
2022/06/26 01:29:21;;;;;;;12.38;5.85;;;19.20;99.90;;;;;;5049418;28;20386;-84
2022/06/26 01:31:48;;;;;;;9.30;5.40;;;19.20;99.90;;;;;;5049447;28;20421;-84
2022/06/26 01:34:16;;;;;;;9.68;5.93;;;19.10;99.90;;;;;;5033642;28;20381;-83
2022/06/26 01:36:44;;;;;;;7.85;5.80;;;19.20;99.90;;;;;;5048896;28;20476;-84
2022/06/26 01:39:12;;;;;;;9.25;5.38;;;19.10;99.90;;;;;;5016920;28;20484;-84
2022/06/26 01:41:39;;;;;;;9.43;5.93;;;19.10;99.90;;;;;;5033446;28;20404;-83
2022/06/26 01:44:09;;;;;;;8.88;5.65;;;19.10;99.90;;;;;;5017344;28;20488;-83
2022/06/26 01:46:37;;;;;;;9.35;5.50;;;19.10;99.90;;;;;;5016811;28;20393;-84
2022/06/26 01:49:05;;;;;;;9.05;5.30;;;19.10;99.90;;;;;;5033668;28;20396;-84
2022/06/26 01:51:36;;;;;;;9.88;5.38;;;19.00;99.90;;;;;;5049719;28;20509;-83
2022/06/26 01:54:03;;;;;;;9.65;5.55;;;19.00;99.90;;;;;;5049851;28;20480;-83
2022/06/26 01:56:32;;;;;;;8.70;5.65;;;19.00;99.90;;;;;;5016582;28;20432;-84
2022/06/26 01:58:59;;;;;;;9.57;5.50;;;19.00;99.90;;;;;;5016797;28;20398;-84
2022/06/26 02:01:39;;;;;;;11.45;5.50;;;19.00;99.90;;;;;;5016570;28;20812;-84
2022/06/26 02:04:07;;;;;;;11.88;5.35;;;19.00;99.90;;;;;;5049745;28;20933;-83
2022/06/26 02:06:35;;;;;;;9.37;5.60;;;18.90;99.90;;;;;;5016383;28;20404;-83
2022/06/26 02:09:04;;;;;;;8.80;5.28;;;19.00;99.90;;;;;;5016735;28;20405;-84
2022/06/26 02:14:21;;;;;;;10.75;5.28;;;19.00;99.90;;;;;;5034032;28;20421;-84
2022/06/26 02:16:57;;;;;;;8.40;5.40;;;18.90;99.90;;;;;;5031241;28;20484;-84
2022/06/26 02:19:25;;;;;;;11.25;5.47;;;18.90;99.90;;;;;;5033080;28;20408;-84
2022/06/26 02:21:53;;;;;;;8.48;5.65;;;18.90;99.90;;;;;;5016143;28;20382;-83
2022/06/26 02:24:20;;;;;;;9.18;4.70;;;18.90;99.90;;;;;;5033250;28;20404;-84
2022/06/26 02:26:48;;;;;;;8.68;5.32;;;18.90;99.90;;;;;;5015600;28;20443;-85
2022/06/26 02:29:15;;;;;;;8.32;5.20;;;18.90;99.90;;;;;;5016166;28;20472;-85
2022/06/26 02:31:43;;;;;;;7.07;5.40;;;18.90;99.90;;;;;;5016054;28;20449;-84
2022/06/26 02:34:13;;;;;;;7.43;5.20;;;18.90;99.90;;;;;;5048995;28;20404;-83
2022/06/26 02:36:43;;;;;;;8.23;5.07;;;18.90;99.90;;;;;;5033193;28;20409;-84
2022/06/26 02:39:11;;;;;;;7.93;4.95;;;18.90;99.90;;;;;;5045856;28;20767;-84
2022/06/26 02:41:38;;;;;;;7.78;5.15;;;18.90;99.90;;;;;;5013946;28;20375;-83
2022/06/26 02:44:06;;;;;;;9.25;6.28;;;18.90;99.90;;;;;;4995902;28;20478;-83
2022/06/26 02:46:34;;;;;;;9.10;5.20;;;18.90;99.90;;;;;;5011826;28;20399;-84
2022/06/26 02:49:02;;;;;;;8.07;6.07;;;18.80;99.90;;;;;;5029060;28;20438;-84
2022/06/26 02:51:29;;;;;;;10.95;5.60;;;18.80;99.90;;;;;;5045594;28;20387;-84
2022/06/26 02:53:57;;;;;;;8.52;5.80;;;18.80;99.90;;;;;;5042523;28;20758;-84
2022/06/26 02:56:26;;;;;;;9.07;5.70;;;18.80;99.90;;;;;;5038336;28;20403;-84
2022/06/26 02:58:53;;;;;;;10.05;6.15;;;18.90;99.90;;;;;;5009206;28;20396;-84
2022/06/26 03:01:21;;;;;;;11.15;6.20;;;18.90;99.90;;;;;;4993879;28;20395;-84
2022/06/26 03:03:53;;;;;;;9.60;5.40;;;18.90;99.90;;;;;;4979206;28;20396;-83
2022/06/26 03:06:21;;;;;;;11.30;6.15;;;18.90;99.90;;;;;;5012211;28;20426;-84
2022/06/26 03:08:48;;;;;;;9.00;5.70;;;18.90;99.90;;;;;;5012105;28;20555;-84
2022/06/26 03:11:16;;;;;;;8.60;6.07;;;18.90;99.90;;;;;;5045736;28;20403;-83
2022/06/26 03:13:44;;;;;;;8.30;6.00;;;19.00;99.90;;;;;;5012022;28;20391;-83
2022/06/26 03:16:13;;;;;;;9.88;5.85;;;18.90;99.90;;;;;;5026395;28;20446;-83
2022/06/26 03:18:40;;;;;;;8.25;6.28;;;18.90;99.90;;;;;;5025122;28;20397;-84
2022/06/26 03:21:08;;;;;;;7.33;5.50;;;19.00;99.90;;;;;;4992509;28;20396;-83
2022/06/26 03:26:24;;;;;;;7.17;6.10;;;18.90;99.90;;;;;;5008637;28;20467;-83
2022/06/26 03:28:52;;;;;;;10.63;6.03;;;18.90;99.90;;;;;;4994055;28;20460;-83
2022/06/26 03:31:20;;;;;;;7.43;5.80;;;18.80;99.90;;;;;;5025123;28;20408;-83
2022/06/26 03:33:49;;;;;;;9.30;5.97;;;18.80;99.90;;;;;;5008933;28;20397;-85
2022/06/26 03:36:20;;;;;;;8.65;5.68;;;18.90;99.90;;;;;;5037229;28;20475;-83
2022/06/26 03:38:48;;;;;;;11.60;5.68;;;18.90;99.90;;;;;;5043979;28;20447;-85
2022/06/26 03:41:16;;;;;;;7.93;5.75;;;18.90;99.90;;;;;;5026134;28;20469;-83
2022/06/26 03:43:44;;;;;;;7.55;6.25;;;19.00;99.90;;;;;;5002407;28;20384;-84
2022/06/26 03:46:11;;;;;;;11.70;6.13;;;18.90;99.90;;;;;;5011709;28;20738;-84
2022/06/26 03:48:43;;;;;;;9.23;6.55;;;19.00;99.90;;;;;;5025924;28;20404;-83
2022/06/26 03:51:11;;;;;;;9.85;5.25;;;19.00;99.90;;;;;;4993200;28;20441;-83
2022/06/26 03:53:39;;;;;;;7.10;6.22;;;19.00;99.90;;;;;;4993114;28;20389;-83
2022/06/26 03:56:06;;;;;;;9.98;6.15;;;19.00;99.90;;;;;;5016394;28;20428;-84
2022/06/26 03:58:35;;;;;;;9.98;6.22;;;19.00;99.90;;;;;;5041295;28;20894;-84
2022/06/26 04:01:08;;;;;;;7.60;5.50;;;19.20;99.90;;;;;;5023298;28;20484;-85
2022/06/26 04:03:35;;;;;;;9.32;5.90;;;19.10;99.90;;;;;;5001238;28;20426;-84
2022/06/26 04:06:04;;;;;;;8.73;6.47;;;19.10;99.90;;;;;;5011426;28;20403;-85
2022/06/26 04:08:36;;;;;;;9.90;6.30;;;19.10;99.90;;;;;;5006831;28;20405;-84
2022/06/26 04:11:06;;;;;;;10.80;6.18;;;19.20;99.90;;;;;;5031142;28;20412;-83
2022/06/26 04:13:35;;;;;;;7.22;6.25;;;19.10;99.90;;;;;;5008869;28;20407;-84
2022/06/26 04:16:04;;;;;;;11.17;8.20;;;19.20;99.90;;;;;;4997177;28;20415;-84
2022/06/26 04:18:35;;;;;;;10.53;7.93;;;19.20;99.90;;;;;;5006934;28;20770;-84
2022/06/26 04:21:04;;;;;;;9.15;6.57;;;19.30;99.90;;;;;;5004968;28;20413;-84
2022/06/26 04:23:35;;;;;;;10.35;6.50;;;19.40;99.90;;;;;;5001719;28;20847;-84
2022/06/26 04:26:07;;;;;;;8.73;6.28;;;19.40;99.90;;;;;;4991208;28;20405;-84
2022/06/26 04:28:35;;;;;;;8.83;6.37;;;19.40;99.90;;;;;;4992483;28;20442;-84
2022/06/26 04:31:06;;;;;;;8.03;6.67;;;19.50;99.90;;;;;;5007259;28;20796;-83
2022/06/26 04:33:35;;;;;;;12.30;7.13;;;19.50;99.90;;;;;;5007825;28;20447;-84
2022/06/26 04:36:07;;;;;;;12.70;7.05;;;19.60;99.90;;;;;;5026539;28;20413;-84
2022/06/26 04:38:37;;;;;;;10.05;6.90;;;19.60;99.90;;;;;;5024601;28;20404;-84
2022/06/26 04:41:31;;;;;;;10.35;6.70;;;19.60;99.90;;;;;;5034956;28;20415;-83
2022/06/26 04:43:52;;;;;;;7.50;6.47;;;19.70;99.90;;;;;;4990816;28;20459;-84
2022/06/26 04:46:19;;;;;;;11.13;7.15;;;19.90;99.90;;;;;;5005420;28;20434;-84
2022/06/26 04:48:48;;;;;;;8.93;6.78;;;19.90;99.90;;;;;;5006540;28;20447;-84
2022/06/26 04:51:17;;;;;;;9.52;7.00;;;19.90;99.90;;;;;;5006706;28;20416;-83
2022/06/26 04:53:45;;;;;;;10.03;7.33;;;20.00;99.90;;;;;;5023546;28;20421;-85
2022/06/26 04:56:13;;;;;;;8.75;7.45;;;20.10;99.90;;;;;;5023090;28;20500;-83
2022/06/26 04:58:48;;;;;;;10.65;7.22;;;20.10;99.90;;;;;;5024455;28;20399;-85
2022/06/26 05:01:16;;;;;;;10.05;7.60;;;20.10;99.90;;;;;;5011049;28;20387;-84
2022/06/26 05:04:08;;;;;;;10.38;8.07;;;20.20;99.90;;;;;;5023037;28;20391;-84
2022/06/26 05:07:11;;;;;;;9.02;8.00;;;20.30;99.90;;;;;;5007675;28;20415;-84
2022/06/26 05:09:40;;;;;;;9.35;7.55;;;20.30;99.90;;;;;;5010275;28;20486;-85
2022/06/26 05:12:08;;;;;;;8.02;7.05;;;20.40;99.90;;;;;;5010024;28;20814;-84
2022/06/26 05:14:56;;;;;;;8.93;7.57;;;20.40;99.90;;;;;;5020496;28;20405;-83
2022/06/26 05:17:35;;;;;;;8.73;7.20;;;20.50;99.90;;;;;;4991202;28;20416;-84
2022/06/26 05:20:06;;;;;;;9.13;7.40;;;20.60;99.90;;;;;;4990670;28;20420;-84
2022/06/26 05:22:33;;;;;;;9.77;7.07;;;20.70;99.90;;;;;;4989926;28;20404;-85
2022/06/26 05:25:01;;;;;;;9.43;7.05;;;20.90;99.90;;;;;;5006703;28;20408;-84
2022/06/26 05:27:29;;;;;;;10.02;7.25;;;21.00;99.90;;;;;;5006535;28;20495;-85
2022/06/26 05:29:56;;;;;;;9.98;7.90;;;21.10;99.90;;;;;;5006701;28;20393;-85
2022/06/26 05:32:25;;;;;;;9.65;7.25;;;21.10;99.90;;;;;;5009451;28;20471;-84
2022/06/26 05:34:54;;;;;;;9.65;7.45;;;21.20;99.90;;;;;;5023223;28;20413;-86
2022/06/26 05:37:23;;;;;;;10.63;7.13;;;21.40;99.90;;;;;;5026063;28;20478;-85
2022/06/26 05:39:50;;;;;;;8.80;6.93;;;21.40;99.90;;;;;;5011777;28;20413;-85
2022/06/26 05:42:20;;;;;;;10.18;6.95;;;21.50;99.90;;;;;;5005903;28;20389;-85
2022/06/26 05:44:48;;;;;;;10.67;7.27;;;21.70;99.90;;;;;;5002201;28;20408;-84
2022/06/26 05:47:18;;;;;;;9.85;6.80;;;21.80;99.90;;;;;;5026093;28;20399;-85
2022/06/26 05:50:07;;;;;;;9.32;6.88;;;21.70;99.90;;;;;;5029968;28;20390;-83
2022/06/26 05:52:56;;;;;;;10.77;6.93;;;21.80;99.90;;;;;;5014505;28;20389;-84
2022/06/26 05:55:42;;;;;;;8.40;6.97;;;21.90;99.90;;;;;;5008480;28;20395;-86
2022/06/26 05:58:28;;;;;;;8.38;6.95;;;21.90;99.90;;;;;;5013065;28;20391;-84
2022/06/26 06:01:09;;;;;;;9.75;7.10;;;22.10;99.90;;;;;;4992916;28;20447;-84
2022/06/26 06:03:37;;;;;;;10.30;7.68;;;22.20;99.90;;;;;;5029260;28;20447;-84
2022/06/26 06:06:05;;;;;;;8.50;6.88;;;22.20;99.90;;;;;;5015428;28;20408;-83
2022/06/26 06:08:34;;;;;;;10.88;7.40;;;22.10;99.90;;;;;;5012963;28;20461;-85
2022/06/26 06:11:01;;;;;;;8.97;7.50;;;22.10;99.90;;;;;;5029309;28;20762;-86
2022/06/26 06:13:30;;;;;;;10.35;7.15;;;22.10;99.90;;;;;;5030803;28;20400;-84
2022/06/26 06:15:57;;;;;;;8.23;6.88;;;22.20;99.90;;;;;;5028467;28;20988;-85
2022/06/26 06:18:25;;;;;;;11.15;7.63;;;22.30;99.90;;;;;;5034092;28;20405;-85
2022/06/26 06:20:53;;;;;;;10.85;7.13;;;22.40;99.90;;;;;;5018215;28;20465;-83
2022/06/26 06:23:37;;;;;;;8.15;6.75;;;22.50;99.90;;;;;;5009407;28;20389;-84
2022/06/26 06:26:06;;;;;;;10.93;7.20;;;22.50;99.90;;;;;;5018338;28;20530;-85
2022/06/26 06:28:35;;;;;;;9.55;6.78;;;22.40;99.90;;;;;;5034253;28;20469;-85
2022/06/26 06:31:03;;;;;;;11.48;7.32;;;22.50;99.90;;;;;;5007104;28;20822;-84
2022/06/26 06:33:32;;;;;;;8.27;7.25;;;22.60;99.90;;;;;;5013814;28;20604;-85
2022/06/26 06:36:00;;;;;;;10.93;8.43;;;22.70;99.90;;;;;;5008720;28;20428;-85
2022/06/26 06:38:32;;;;;;;10.85;8.68;;;22.80;99.90;;;;;;5028652;28;20543;-86
2022/06/26 06:41:05;;;;;;;9.00;7.40;;;22.70;99.90;;;;;;5034157;28;20391;-86
2022/06/26 06:43:46;;;;;;;9.55;7.38;;;22.80;99.90;;;;;;5027758;28;20868;-85
2022/06/26 06:46:26;;;;;;;8.35;7.32;;;23.10;99.90;;;;;;5012124;28;20952;-84
2022/06/26 06:49:01;;;;;;;9.00;7.38;;;23.20;99.90;;;;;;5019653;28;20485;-84
2022/06/26 06:51:35;;;;;;;9.27;7.22;;;23.10;99.90;;;;;;5033603;28;20422;-84
2022/06/26 06:54:03;;;;;;;9.47;7.57;;;23.20;99.90;;;;;;5035082;28;20461;-85
2022/06/26 06:56:33;;;;;;;10.20;7.15;;;23.20;99.90;;;;;;5028780;28;20409;-85
2022/06/26 06:59:01;;;;;;;9.63;8.18;;;23.20;99.90;;;;;;5034761;28;20407;-85
2022/06/26 07:01:30;;;;;;;9.70;8.13;;;23.30;99.90;;;;;;4999573;28;20403;-86
2022/06/26 07:03:57;;;;;;;10.52;7.88;;;23.30;99.90;;;;;;5000905;28;20399;-85
2022/06/26 07:06:25;;;;;;;8.48;7.53;;;23.40;99.90;;;;;;5010463;28;20451;-85
2022/06/26 07:08:53;;;;;;;8.73;7.80;;;23.40;99.90;;;;;;5015619;28;20399;-84
2022/06/26 07:11:21;;;;;;;9.93;8.40;;;23.50;99.90;;;;;;5011563;28;20393;-85
2022/06/26 07:13:49;;;;;;;10.65;8.32;;;23.60;99.90;;;;;;5040617;28;20420;-85
2022/06/26 07:16:17;;;;;;;8.50;7.60;;;23.70;99.90;;;;;;5018487;28;20439;-86
2022/06/26 07:18:45;;;;;;;8.90;7.80;;;23.70;99.90;;;;;;5034420;28;20497;-85
2022/06/26 07:21:13;;;;;;;9.10;7.93;;;23.80;99.90;;;;;;5037468;28;20427;-84
2022/06/26 07:23:43;;;;;;;9.50;7.75;;;23.90;99.90;;;;;;5011130;28;20458;-85
2022/06/26 07:26:36;;;;;;;16.60;11.80;;;23.90;99.90;;;;;;5039544;28;20413;-85
2022/06/26 07:29:07;;;;;;;9.85;7.90;;;23.90;99.90;;;;;;5014663;28;20942;-88
2022/06/26 07:31:41;;;;;;;11.95;8.25;;;24.10;99.90;;;;;;5038907;28;21004;-87
2022/06/26 07:34:13;;;;;;;9.70;7.87;;;24.10;99.90;;;;;;5004363;28;20407;-88
2022/06/26 07:36:45;;;;;;;8.82;7.50;;;24.10;99.90;;;;;;5039678;28;20410;-88
2022/06/26 07:39:16;;;;;;;10.20;7.78;;;24.20;99.90;;;;;;5010441;28;20780;-88
2022/06/26 07:41:48;;;;;;;8.43;7.63;;;24.30;99.90;;;;;;5040680;28;20417;-87
2022/06/26 07:44:16;;;;;;;8.73;7.53;;;24.30;99.90;;;;;;5009656;28;20455;-88
2022/06/26 07:46:44;;;;;;;8.75;7.85;;;24.50;99.90;;;;;;4992477;28;20399;-89
2022/06/26 07:49:21;;;;;;;9.88;7.80;;;24.50;99.90;;;;;;5013626;28;20419;-88
2022/06/26 07:51:54;;;;;;;8.85;7.90;;;24.50;99.90;;;;;;5012392;28;20415;-88
2022/06/26 07:54:22;;;;;;;10.90;8.38;;;24.50;99.90;;;;;;5003818;28;20407;-88
2022/06/26 07:56:50;;;;;;;9.77;8.35;;;24.50;99.90;;;;;;5012515;28;20735;-87
2022/06/26 07:59:18;;;;;;;9.40;7.90;;;24.60;99.90;;;;;;4999537;28;20462;-87
2022/06/26 08:01:45;;;;;;;9.38;8.43;;;24.70;99.90;;;;;;5010770;28;20939;-87
2022/06/26 08:04:13;;;;;;;10.10;8.45;;;24.60;99.90;;;;;;5005847;28;20423;-87
2022/06/26 08:06:40;;;;;;;9.45;8.45;;;24.70;99.90;;;;;;5012622;28;20466;-89
2022/06/26 08:09:08;;;;;;;9.00;8.07;;;24.70;99.90;;;;;;5027241;28;20402;-86
2022/06/26 08:11:36;;;;;;;11.10;8.70;;;24.80;99.90;;;;;;5019355;28;20880;-85
2022/06/26 08:14:05;;;;;;;8.95;8.10;;;25.10;99.90;;;;;;5026682;28;20453;-86
2022/06/26 08:16:33;;;;;;;8.82;8.02;;;25.00;99.90;;;;;;5024929;28;20415;-86
2022/06/26 08:19:00;;;;;;;8.45;7.60;;;25.00;99.90;;;;;;5008348;28;20415;-87
2022/06/26 08:24:14;;;;;;;8.55;7.65;;;25.10;99.90;;;;;;5011276;28;20395;-86
2022/06/26 08:26:41;;;;;;;10.23;8.27;;;25.10;99.90;;;;;;5011741;28;20389;-87
2022/06/26 08:29:09;;;;;;;8.60;7.75;;;25.20;99.90;;;;;;5002811;28;20758;-86
2022/06/26 08:31:36;;;;;;;9.38;8.05;;;25.40;99.90;;;;;;5028799;28;20401;-87
2022/06/26 08:34:05;;;;;;;11.25;8.13;;;25.30;99.90;;;;;;5002826;28;20454;-86
2022/06/26 08:36:33;;;;;;;8.65;7.75;;;25.20;99.90;;;;;;5011738;28;20412;-85
2022/06/26 08:39:04;;;;;;;8.73;7.90;;;25.30;99.90;;;;;;5024368;28;20898;-85
2022/06/26 08:41:41;;;;;;;8.85;7.93;;;25.30;99.90;;;;;;5026336;28;20470;-87
2022/06/26 08:44:10;;;;;;;8.98;8.07;;;25.10;99.90;;;;;;5028588;28;20385;-87
2022/06/26 08:46:44;;;;;;;9.80;8.37;;;25.00;99.90;;;;;;5027525;28;20389;-86
2022/06/26 08:49:23;;;;;;;8.90;8.10;;;25.10;99.90;;;;;;5026310;28;20401;-87
2022/06/26 08:51:58;;;;;;;8.87;7.93;;;25.20;99.90;;;;;;5029636;28;20396;-86
2022/06/26 08:54:28;;;;;;;9.05;8.10;;;25.30;99.90;;;;;;5013660;28;20393;-86
2022/06/26 08:56:56;;;;;;;11.40;8.73;;;25.30;99.90;;;;;;5046123;28;20412;-86
2022/06/26 08:59:24;;;;;;;9.50;8.23;;;25.20;99.90;;;;;;5030377;28;20382;-86
2022/06/26 09:01:52;;;;;;;10.32;8.80;;;25.10;99.90;;;;;;5046343;28;20389;-87
2022/06/26 09:04:19;;;;;;;9.05;8.15;;;25.00;99.90;;;;;;5030978;28;20408;-87
2022/06/26 09:06:47;;;;;;;9.47;8.43;;;25.00;99.90;;;;;;5031109;28;20904;-86
2022/06/26 09:09:24;;;;;;;11.18;8.05;;;25.00;99.90;;;;;;5008830;28;20403;-86
2022/06/26 09:11:57;;;;;;;8.80;7.90;;;25.10;99.90;;;;;;5012316;28;20395;-86
2022/06/26 09:14:27;;;;;;;10.27;8.52;;;25.30;99.90;;;;;;5042854;28;20389;-86
2022/06/26 09:16:56;;;;;;;10.43;8.63;;;25.50;99.90;;;;;;5027116;28;20418;-85
2022/06/26 09:19:36;;;;;;;9.15;8.30;;;25.70;99.90;;;;;;5014677;28;20399;-85
2022/06/26 09:22:09;;;;;;;10.77;9.00;;;25.90;99.90;;;;;;5024727;28;20751;-86
2022/06/26 09:24:39;;;;;;;9.85;8.65;;;25.90;99.90;;;;;;5036860;28;20408;-86
2022/06/26 09:27:10;;;;;;;9.40;8.50;;;25.90;99.90;;;;;;5001759;28;20639;-86
2022/06/26 09:29:40;;;;;;;9.50;8.10;;;26.00;99.90;;;;;;4996275;28;20387;-87
2022/06/26 09:32:13;;;;;;;9.65;8.75;;;25.70;99.90;;;;;;5013148;28;20460;-86
2022/06/26 09:34:49;;;;;;;10.20;9.15;;;25.80;99.90;;;;;;5044669;28;20397;-86
2022/06/26 09:37:19;;;;;;;10.15;9.15;;;25.80;99.90;;;;;;5032578;28;20405;-86
2022/06/26 09:40:07;;;;;;;12.23;9.40;;;25.90;99.90;;;;;;5034624;28;20385;-86
2022/06/26 09:42:35;;;;;;;10.10;9.00;;;26.10;99.90;;;;;;5034443;28;20432;-85
2022/06/26 09:45:09;;;;;;;11.90;9.95;;;26.20;99.90;;;;;;5017116;28;20421;-86
2022/06/26 09:47:39;;;;;;;11.63;10.23;;;26.30;99.90;;;;;;5041715;28;20490;-87
2022/06/26 09:50:08;;;;;;;10.63;9.63;;;26.40;99.90;;;;;;5037110;28;20446;-85
2022/06/26 09:52:36;;;;;;;11.55;10.35;;;26.40;99.90;;;;;;5034875;28;20411;-86
2022/06/26 09:55:06;;;;;;;10.85;9.75;;;26.40;99.90;;;;;;5036395;28;20406;-86
2022/06/26 09:57:36;;;;;;;10.82;9.45;;;26.50;99.90;;;;;;5040570;28;20465;-87
2022/06/26 10:00:06;;;;;;;13.23;11.82;;;26.60;99.90;;;;;;5030100;28;20483;-86
2022/06/26 10:08:17;;;;;;;9.95;8.95;;;26.60;99.90;;;;;;5019297;28;20406;-84
2022/06/26 10:10:47;;;;;;;10.38;9.27;;;26.80;99.90;;;;;;5013599;28;20398;-85
2022/06/26 10:13:15;;;;;;;10.27;9.27;;;26.90;99.90;;;;;;5019564;28;20738;-86
2022/06/26 10:15:46;;;;;;;10.27;9.23;;;27.10;99.90;;;;;;5029608;28;20409;-86
2022/06/26 10:18:37;;;;;;;9.95;8.88;;;27.10;99.90;;;;;;5023208;28;20417;-86
2022/06/26 10:21:10;;;;;;;10.15;9.25;;;27.10;99.90;;;;;;5006342;28;20460;-86
2022/06/26 10:23:41;;;;;;;10.10;9.10;;;27.20;99.90;;;;;;4997313;28;20908;-86
2022/06/26 10:26:17;;;;;;;10.20;9.30;;;27.20;99.90;;;;;;4997099;28;20392;-85
2022/06/26 10:29:14;;;;;;;10.85;9.60;;;27.20;99.90;;;;;;5014815;28;20445;-85
2022/06/26 10:31:49;;;;;;;10.00;9.10;;;27.30;99.90;;;;;;5009627;28;20915;-85
2022/06/26 10:34:19;;;;;;;10.30;9.30;;;27.30;99.90;;;;;;5028013;28;20385;-86
2022/06/26 10:37:03;;;;;;;11.32;9.80;;;27.40;99.90;;;;;;5016063;28;20429;-86
2022/06/26 10:39:42;;;;;;;10.88;9.77;;;27.40;99.90;;;;;;5015822;28;20393;-87
2022/06/26 10:45:12;;;;;;;11.05;9.90;;;27.60;99.90;;;;;;5016102;28;20389;-86
2022/06/26 10:47:54;;;;;;;11.33;9.87;;;27.70;99.90;;;;;;5048893;28;20747;-86
2022/06/26 10:50:32;;;;;;;12.52;9.20;;;27.70;99.90;;;;;;5033525;28;20399;-86
2022/06/26 10:53:25;;;;;;;10.03;9.03;;;27.70;99.90;;;;;;5033504;28;20826;-85
2022/06/26 10:56:00;;;;;;;10.60;9.55;;;27.80;99.90;;;;;;5049031;28;20385;-86
2022/06/26 10:58:31;;;;;;;10.70;9.70;;;27.80;99.90;;;;;;5032164;28;20482;-86
2022/06/26 11:01:02;;;;;;;10.40;9.30;;;27.80;99.90;;;;;;5048657;28;20869;-86
2022/06/26 11:03:31;;;;;;;10.10;9.10;;;27.90;99.90;;;;;;5016134;28;20386;-86
2022/06/26 11:06:06;;;;;;;9.80;8.80;;;27.80;99.90;;;;;;5048459;28;20385;-85
2022/06/26 11:08:36;;;;;;;10.13;9.23;;;27.80;99.90;;;;;;5032872;28;20386;-86
2022/06/26 11:11:10;;;;;;;9.80;8.90;;;28.10;99.90;;;;;;5048312;28;20389;-85
2022/06/26 11:13:49;;;;;;;10.52;9.45;;;28.10;99.90;;;;;;5032193;28;20403;-86
2022/06/26 11:16:34;;;;;;;10.63;9.52;;;28.00;99.90;;;;;;5013116;28;20882;-84
2022/06/26 11:19:07;;;;;;;10.13;8.85;;;28.10;99.90;;;;;;5044393;28;20407;-84
2022/06/26 11:21:37;;;;;;;9.50;8.63;;;28.10;99.90;;;;;;5042475;28;20384;-84
2022/06/26 11:24:08;;;;;;;9.30;8.43;;;28.20;99.90;;;;;;5037443;28;20393;-84
2022/06/26 11:26:37;;;;;;;9.40;8.43;;;28.20;99.90;;;;;;5038516;28;20871;-85
2022/06/26 11:29:08;;;;;;;9.93;9.02;;;28.40;99.90;;;;;;5044079;28;20503;-86
2022/06/26 11:31:39;;;;;;;10.02;9.02;;;28.40;99.90;;;;;;5028798;28;20400;-85
2022/06/26 11:34:15;;;;;;;9.37;8.47;;;28.60;99.90;;;;;;5010588;28;20410;-86
2022/06/26 11:36:54;;;;;;;9.02;8.07;;;28.60;99.90;;;;;;5026735;28;20491;-85
2022/06/26 11:39:42;;;;;;;10.15;8.43;;;28.40;99.90;;;;;;5026760;28;20900;-85
2022/06/26 11:42:29;;;;;;;9.00;8.10;;;28.10;99.90;;;;;;5028527;28;20422;-85
2022/06/26 11:44:59;;;;;;;8.88;7.97;;;28.10;99.90;;;;;;5012659;28;20398;-85
2022/06/26 11:47:26;;;;;;;9.90;8.30;;;27.90;99.90;;;;;;4999780;28;20387;-85
2022/06/26 11:49:54;;;;;;;8.98;8.07;;;28.00;99.90;;;;;;5014431;28;20455;-85
2022/06/26 11:52:22;;;;;;;8.95;8.18;;;28.20;99.90;;;;;;5014633;28;20392;-85
2022/06/26 11:55:01;;;;;;;8.75;7.70;;;28.20;99.90;;;;;;5032066;28;20393;-85
2022/06/26 11:57:37;;;;;;;8.45;7.65;;;28.20;99.90;;;;;;5014370;28;20484;-85
2022/06/26 12:00:07;;;;;;;13.60;7.80;;;28.00;99.90;;;;;;5013630;28;20382;-84
2022/06/26 12:02:41;;;;;;;9.35;8.05;;;28.10;99.90;;;;;;5011051;28;20410;-84
2022/06/26 12:05:10;;;;;;;9.98;7.95;;;28.30;99.90;;;;;;5011194;28;20943;-84
2022/06/26 12:07:47;;;;;;;8.05;7.25;;;28.40;99.90;;;;;;5010243;28;20395;-84
2022/06/26 12:10:35;;;;;;;11.85;7.40;;;28.20;99.90;;;;;;5026524;28;20385;-84
2022/06/26 12:13:04;;;;;;;9.67;7.67;;;28.10;99.90;;;;;;5027645;28;20776;-84
2022/06/26 12:15:36;;;;;;;9.60;7.97;;;28.20;99.90;;;;;;5035712;28;20425;-85
2022/06/26 12:18:07;;;;;;;10.18;7.82;;;28.00;99.90;;;;;;5009556;28;20810;-85
2022/06/26 12:20:37;;;;;;;10.25;7.95;;;28.20;99.90;;;;;;5024667;28;20450;-85
2022/06/26 12:23:05;;;;;;;8.65;7.75;;;28.40;99.90;;;;;;5010324;28;20442;-85
2022/06/26 12:25:36;;;;;;;9.02;8.05;;;28.40;99.90;;;;;;5008651;28;20389;-84
2022/06/26 12:28:04;;;;;;;9.48;7.97;;;28.70;99.90;;;;;;5011018;28;20413;-85
2022/06/26 12:30:34;;;;;;;10.05;7.97;;;28.90;99.90;;;;;;5029451;28;20473;-84
2022/06/26 12:33:04;;;;;;;8.90;7.90;;;29.00;99.90;;;;;;5046560;28;20398;-84
2022/06/26 12:35:33;;;;;;;8.63;7.47;;;29.10;99.90;;;;;;5030299;28;20788;-84
2022/06/26 12:38:01;;;;;;;9.45;7.75;;;29.30;99.90;;;;;;5029699;28;20907;-84
2022/06/26 12:40:29;;;;;;;11.65;8.00;;;29.30;99.90;;;;;;5030654;28;20386;-83
2022/06/26 12:42:57;;;;;;;8.40;7.50;;;29.30;99.90;;;;;;5030215;28;20394;-85
2022/06/26 12:45:25;;;;;;;8.02;7.18;;;29.40;99.90;;;;;;5031304;28;20867;-84
2022/06/26 12:47:53;;;;;;;7.93;7.22;;;29.50;99.90;;;;;;5031166;28;20389;-85
2022/06/26 12:50:22;;;;;;;8.43;7.57;;;29.60;99.90;;;;;;5030996;28;20385;-84
2022/06/26 12:52:51;;;;;;;9.48;7.72;;;29.70;99.90;;;;;;5029591;28;20756;-85
2022/06/26 12:55:19;;;;;;;8.18;7.38;;;29.60;99.90;;;;;;5046248;28;20432;-85
2022/06/26 12:57:47;;;;;;;8.68;7.88;;;29.70;99.90;;;;;;5031003;28;20437;-85
2022/06/26 13:00:16;;;;;;;8.30;7.50;;;29.80;99.90;;;;;;5046148;28;20389;-84
2022/06/26 13:02:43;;;;;;;8.27;7.50;;;30.00;99.90;;;;;;5009715;28;20402;-85
2022/06/26 13:05:11;;;;;;;10.35;7.57;;;30.00;99.90;;;;;;5027999;28;20503;-85
2022/06/26 13:07:38;;;;;;;9.80;7.40;;;30.10;99.90;;;;;;5011475;28;20385;-85
2022/06/26 13:10:07;;;;;;;8.50;7.60;;;30.10;99.90;;;;;;5021027;28;20407;-85
2022/06/26 13:12:35;;;;;;;8.07;7.13;;;30.10;99.90;;;;;;5023889;28;20779;-85
2022/06/26 13:15:03;;;;;;;8.55;7.53;;;30.20;99.90;;;;;;5015431;28;20943;-84
2022/06/26 13:17:31;;;;;;;7.70;6.90;;;30.30;99.90;;;;;;5015285;28;20893;-84